Time;durP1;ratioP1;P1;durP2;ratioP2;P2;SDS_P1;SDS_P2;PMS_P1;PMS_P2;Temp;Humidity;BMP_temperature;BMP_pressure;BME280_temperature;BME280_humidity;BME280_pressure;Samples;Min_cycle;Max_cycle;Signal;HPM_P1;HPM_P2
2023/10/13 00:01:52;;;;;;;20.50;18.40;;;;;;;-128.00;-1.00;-1.00;105949;1250;1062966;-71
2023/10/13 00:04:24;;;;;;;19.40;17.30;;;;;;;-128.00;-1.00;-1.00;105904;1250;1056423;-70
2023/10/13 00:06:56;;;;;;;21.50;18.00;;;;;;;-128.00;-1.00;-1.00;105484;1249;1061316;-70
2023/10/13 00:09:32;;;;;;;19.00;17.10;;;;;;;-128.00;-1.00;-1.00;105701;1249;1045220;-70
2023/10/13 00:11:59;;;;;;;23.30;19.30;;;;;;;-128.00;-1.00;-1.00;105736;1249;1047530;-70
2023/10/13 00:14:33;;;;;;;23.90;19.80;;;;;;;-128.00;-1.00;-1.00;105756;1250;1003800;-70
2023/10/13 00:17:03;;;;;;;23.80;20.40;;;;;;;-128.00;-1.00;-1.00;105911;1250;1055866;-70
2023/10/13 00:19:46;;;;;;;22.10;19.10;;;;;;;-128.00;-1.00;-1.00;105768;1250;1058617;-70
2023/10/13 00:22:15;;;;;;;26.80;19.50;;;;;;;-128.00;-1.00;-1.00;105953;1249;1046705;-70
2023/10/13 00:24:46;;;;;;;21.80;19.50;;;;;;;-128.00;-1.00;-1.00;105949;1249;1048479;-70
2023/10/13 00:27:30;;;;;;;20.60;18.30;;;;;;;-128.00;-1.00;-1.00;105889;1249;1063172;-71
2023/10/13 00:30:50;;;;;;;21.60;17.50;;;;;;;-128.00;-1.00;-1.00;105736;1250;1054832;-71
2023/10/13 00:32:56;;;;;;;18.60;16.70;;;;;;;-128.00;-1.00;-1.00;105838;1249;1059682;-70
2023/10/13 00:35:36;;;;;;;21.00;17.60;;;;;;;-128.00;-1.00;-1.00;105868;1249;1046962;-70
2023/10/13 00:38:04;;;;;;;20.40;17.60;;;;;;;-128.00;-1.00;-1.00;105911;1249;1046541;-70
2023/10/13 00:45:56;;;;;;;20.60;17.80;;;;;;;-128.00;-1.00;-1.00;105889;1250;1060534;-71
2023/10/13 00:48:42;;;;;;;18.30;16.30;;;;;;;-128.00;-1.00;-1.00;105939;1249;1047770;-71
2023/10/13 00:51:32;;;;;;;20.90;17.60;;;;;;;-128.00;-1.00;-1.00;105751;1250;1045976;-71
2023/10/13 00:54:02;;;;;;;21.90;18.00;;;;;;;-128.00;-1.00;-1.00;105902;1250;1062667;-71
2023/10/13 00:56:30;;;;;;;22.60;19.30;;;;;;;-128.00;-1.00;-1.00;105904;1249;1055292;-70
2023/10/13 00:59:02;;;;;;;22.30;20.00;;;;;;;-128.00;-1.00;-1.00;105750;1249;1004386;-70
2023/10/13 01:01:32;;;;;;;20.60;18.50;;;;;;;-128.00;-1.00;-1.00;105393;1253;1045708;-70
2023/10/13 01:03:59;;;;;;;27.40;20.80;;;;;;;-128.00;-1.00;-1.00;105675;1254;1046800;-70
2023/10/13 01:06:27;;;;;;;21.80;19.30;;;;;;;-128.00;-1.00;-1.00;105695;1253;1003908;-71
2023/10/13 01:09:12;;;;;;;23.90;19.30;;;;;;;-128.00;-1.00;-1.00;105649;1254;1004144;-70
2023/10/13 01:11:44;;;;;;;23.10;19.40;;;;;;;-128.00;-1.00;-1.00;105654;1256;1059090;-71
2023/10/13 01:14:12;;;;;;;28.40;23.80;;;;;;;-128.00;-1.00;-1.00;105658;1252;1045772;-71
2023/10/13 01:16:43;;;;;;;22.60;20.20;;;;;;;-128.00;-1.00;-1.00;105686;1253;1004491;-71
2023/10/13 01:19:12;;;;;;;26.00;22.20;;;;;;;-128.00;-1.00;-1.00;105493;1253;1062450;-70
2023/10/13 01:21:41;;;;;;;24.80;21.40;;;;;;;-128.00;-1.00;-1.00;105643;1254;1057010;-71
2023/10/13 01:24:08;;;;;;;24.50;21.40;;;;;;;-128.00;-1.00;-1.00;105683;1252;1059290;-71
2023/10/13 01:26:38;;;;;;;25.60;22.70;;;;;;;-128.00;-1.00;-1.00;105672;1253;1004473;-71
2023/10/13 01:29:14;;;;;;;29.50;24.30;;;;;;;-128.00;-1.00;-1.00;105476;1253;1046483;-71
2023/10/13 01:31:48;;;;;;;30.20;23.40;;;;;;;-128.00;-1.00;-1.00;105709;1250;1062717;-71
2023/10/13 01:34:24;;;;;;;27.00;22.60;;;;;;;-128.00;-1.00;-1.00;105860;1249;1056711;-71
2023/10/13 01:36:53;;;;;;;24.50;21.90;;;;;;;-128.00;-1.00;-1.00;105892;1249;1059259;-71
2023/10/13 01:39:26;;;;;;;23.90;21.10;;;;;;;-128.00;-1.00;-1.00;105910;1249;1004721;-71
2023/10/13 01:41:55;;;;;;;23.20;20.60;;;;;;;-128.00;-1.00;-1.00;105873;1249;1047804;-71
2023/10/13 01:44:27;;;;;;;20.00;17.70;;;;;;;-128.00;-1.00;-1.00;105867;1250;1063228;-71
2023/10/13 01:46:54;;;;;;;18.70;16.90;;;;;;;-128.00;-1.00;-1.00;105951;1249;1056026;-71
2023/10/13 01:49:22;;;;;;;18.40;16.40;;;;;;;-128.00;-1.00;-1.00;105908;1249;1004518;-71
2023/10/13 01:51:49;;;;;;;18.70;16.90;;;;;;;-128.00;-1.00;-1.00;105999;1253;1004954;-71
2023/10/13 01:54:15;;;;;;;21.50;18.70;;;;;;;-128.00;-1.00;-1.00;105883;1250;1003923;-71
2023/10/13 01:56:43;;;;;;;22.30;17.70;;;;;;;-128.00;-1.00;-1.00;105918;1249;1004331;-71
2023/10/13 01:59:11;;;;;;;18.60;16.20;;;;;;;-128.00;-1.00;-1.00;105967;1250;1004244;-71
2023/10/13 02:01:38;;;;;;;18.30;16.30;;;;;;;-128.00;-1.00;-1.00;105910;1250;1004207;-71
2023/10/13 02:04:04;;;;;;;16.80;15.00;;;;;;;-128.00;-1.00;-1.00;105788;1250;1003981;-71
2023/10/13 02:06:32;;;;;;;19.40;15.80;;;;;;;-128.00;-1.00;-1.00;105907;1250;1004283;-71
2023/10/13 02:09:10;;;;;;;19.30;15.80;;;;;;;-128.00;-1.00;-1.00;105845;1249;1004451;-71
2023/10/13 02:11:41;;;;;;;19.30;17.10;;;;;;;-128.00;-1.00;-1.00;105927;1250;1055766;-71
2023/10/13 02:14:11;;;;;;;26.10;23.30;;;;;;;-128.00;-1.00;-1.00;105887;1250;1058918;-71
2023/10/13 02:16:39;;;;;;;21.40;19.00;;;;;;;-128.00;-1.00;-1.00;105873;1250;1046101;-70
2023/10/13 02:19:05;;;;;;;24.90;20.70;;;;;;;-128.00;-1.00;-1.00;105809;1250;1003615;-70
2023/10/13 02:21:32;;;;;;;17.10;15.40;;;;;;;-128.00;-1.00;-1.00;105969;1250;1003380;-70
2023/10/13 02:24:04;;;;;;;21.40;16.80;;;;;;;-128.00;-1.00;-1.00;105928;1250;1004644;-71
2023/10/13 02:26:31;;;;;;;17.80;16.10;;;;;;;-128.00;-1.00;-1.00;105931;1249;1060526;-71
2023/10/13 02:29:00;;;;;;;19.70;16.70;;;;;;;-128.00;-1.00;-1.00;105913;1249;1004321;-71
2023/10/13 02:31:29;;;;;;;19.80;17.40;;;;;;;-128.00;-1.00;-1.00;105939;1249;1049657;-70
2023/10/13 02:33:56;;;;;;;18.80;17.00;;;;;;;-128.00;-1.00;-1.00;105866;1250;1062776;-70
2023/10/13 02:36:23;;;;;;;23.70;19.90;;;;;;;-128.00;-1.00;-1.00;105953;1250;1004135;-71
2023/10/13 02:38:50;;;;;;;19.80;17.50;;;;;;;-128.00;-1.00;-1.00;105844;1250;1003914;-71
2023/10/13 02:41:25;;;;;;;17.00;15.30;;;;;;;-128.00;-1.00;-1.00;105906;1249;1004069;-71
2023/10/13 02:43:53;;;;;;;21.60;19.20;;;;;;;-128.00;-1.00;-1.00;105834;1251;1048558;-71
2023/10/13 02:46:21;;;;;;;21.30;19.10;;;;;;;-128.00;-1.00;-1.00;105895;1249;1004450;-71
2023/10/13 02:48:57;;;;;;;21.80;19.30;;;;;;;-128.00;-1.00;-1.00;105899;1250;1056731;-71
2023/10/13 02:51:31;;;;;;;24.50;21.00;;;;;;;-128.00;-1.00;-1.00;105866;1250;1058724;-71
2023/10/13 02:54:02;;;;;;;21.90;19.50;;;;;;;-128.00;-1.00;-1.00;105860;1249;1046109;-71
2023/10/13 02:56:29;;;;;;;20.20;18.00;;;;;;;-128.00;-1.00;-1.00;105780;1249;1047029;-71
2023/10/13 02:59:05;;;;;;;24.20;21.20;;;;;;;-128.00;-1.00;-1.00;105842;1251;1003990;-71
2023/10/13 03:01:34;;;;;;;18.40;15.90;;;;;;;-128.00;-1.00;-1.00;105897;1251;1055499;-71
2023/10/13 03:04:02;;;;;;;19.10;16.50;;;;;;;-128.00;-1.00;-1.00;105948;1249;1059625;-71
2023/10/13 03:06:32;;;;;;;17.30;15.50;;;;;;;-128.00;-1.00;-1.00;105787;1251;1045362;-71
2023/10/13 03:09:18;;;;;;;15.80;12.70;;;;;;;-128.00;-1.00;-1.00;105919;1249;1046183;-71
2023/10/13 03:11:48;;;;;;;21.00;16.10;;;;;;;-128.00;-1.00;-1.00;105884;1250;1062222;-71
2023/10/13 03:14:30;;;;;;;25.00;18.10;;;;;;;-128.00;-1.00;-1.00;105940;1249;1055453;-71
2023/10/13 03:17:14;;;;;;;20.20;18.00;;;;;;;-128.00;-1.00;-1.00;105928;1249;1059113;-71
2023/10/13 03:19:49;;;;;;;18.60;16.70;;;;;;;-128.00;-1.00;-1.00;105765;1250;1047080;-71
2023/10/13 03:22:16;;;;;;;18.20;16.40;;;;;;;-128.00;-1.00;-1.00;105936;1250;1046620;-71
2023/10/13 03:24:47;;;;;;;21.30;17.50;;;;;;;-128.00;-1.00;-1.00;105901;1249;1004754;-71
2023/10/13 03:27:16;;;;;;;20.80;18.50;;;;;;;-128.00;-1.00;-1.00;105862;1249;1055137;-71
2023/10/13 03:29:44;;;;;;;18.20;16.30;;;;;;;-128.00;-1.00;-1.00;105918;1250;1059205;-71
2023/10/13 03:32:12;;;;;;;20.70;17.80;;;;;;;-128.00;-1.00;-1.00;105903;1253;1004299;-71
2023/10/13 03:37:39;;;;;;;15.90;13.90;;;;;;;-128.00;-1.00;-1.00;105904;1250;1062123;-71
2023/10/13 03:43:00;;;;;;;15.60;14.00;;;;;;;-128.00;-1.00;-1.00;105894;1251;1059733;-70
2023/10/13 03:45:27;;;;;;;17.90;16.30;;;;;;;-128.00;-1.00;-1.00;105880;1250;1046113;-70
2023/10/13 03:47:53;;;;;;;20.50;18.50;;;;;;;-128.00;-1.00;-1.00;105922;1250;1004156;-70
2023/10/13 03:50:29;;;;;;;18.10;16.30;;;;;;;-128.00;-1.00;-1.00;105894;1253;1004481;-70
2023/10/13 03:52:59;;;;;;;17.20;15.50;;;;;;;-128.00;-1.00;-1.00;105882;1250;1055260;-70
2023/10/13 03:55:29;;;;;;;17.70;15.20;;;;;;;-128.00;-1.00;-1.00;105914;1251;1059578;-70
2023/10/13 03:57:59;;;;;;;;;;;;;;;-128.00;-1.00;-1.00;105911;1250;1046318;-71
2023/10/13 04:00:27;;;;;;;20.30;18.10;;;;;;;-128.00;-1.00;-1.00;105906;1251;1047197;-71
2023/10/13 04:05:41;;;;;;;31.50;27.90;;;;;;;-128.00;-1.00;-1.00;105844;1253;1056536;-71
2023/10/13 04:21:42;;;;;;;26.10;23.50;;;;;;;-128.00;-1.00;-1.00;105865;1251;1058139;-70
2023/10/13 04:29:52;;;;;;;26.60;23.90;;;;;;;-128.00;-1.00;-1.00;105913;1250;1063461;-70
2023/10/13 04:32:38;;;;;;;31.10;25.70;;;;;;;-128.00;-1.00;-1.00;105888;1250;1055660;-70
2023/10/13 04:38:01;;;;;;;29.30;26.30;;;;;;;-128.00;-1.00;-1.00;105866;1250;1046397;-70
2023/10/13 04:40:35;;;;;;;30.30;27.20;;;;;;;-128.00;-1.00;-1.00;105879;1250;1048965;-71
2023/10/13 04:43:16;;;;;;;28.50;25.50;;;;;;;-128.00;-1.00;-1.00;105913;1251;1062271;-70
2023/10/13 04:45:54;;;;;;;29.50;26.40;;;;;;;-128.00;-1.00;-1.00;105925;1249;1056574;-70
2023/10/13 04:50:53;;;;;;;28.90;25.50;;;;;;;-128.00;-1.00;-1.00;105879;1249;1003782;-71
2023/10/13 04:53:40;;;;;;;30.60;26.70;;;;;;;-128.00;-1.00;-1.00;105884;1250;1047156;-71
2023/10/13 04:56:53;;;;;;;28.20;25.40;;;;;;;-128.00;-1.00;-1.00;105914;1250;1062351;-71
2023/10/13 05:02:41;;;;;;;29.50;26.40;;;;;;;-128.00;-1.00;-1.00;105893;1251;1059615;-71
2023/10/13 05:05:10;;;;;;;29.70;25.80;;;;;;;-128.00;-1.00;-1.00;105896;1251;1046623;-72
2023/10/13 06:30:04;;;;;;;31.30;28.20;;;;;;;-128.00;-1.00;-1.00;105691;1250;1046775;-75
2023/10/13 06:32:32;;;;;;;34.00;30.50;;;;;;;-128.00;-1.00;-1.00;105883;1251;1060684;-74
2023/10/13 06:35:05;;;;;;;31.70;28.20;;;;;;;-128.00;-1.00;-1.00;105833;1249;1003603;-74
2023/10/13 06:37:32;;;;;;;44.90;40.50;;;;;;;-128.00;-1.00;-1.00;105875;1251;1058448;-75
2023/10/13 06:40:22;;;;;;;59.20;54.00;;;;;;;-128.00;-1.00;-1.00;105854;1249;1004787;-74
2023/10/13 06:42:48;;;;;;;31.80;28.50;;;;;;;-128.00;-1.00;-1.00;105924;1249;1047027;-76
2023/10/13 06:45:17;;;;;;;32.80;29.50;;;;;;;-128.00;-1.00;-1.00;105759;1250;1003900;-73
2023/10/13 06:47:43;;;;;;;37.10;33.80;;;;;;;-128.00;-1.00;-1.00;105909;1250;1054527;-73
2023/10/13 06:50:24;;;;;;;28.20;24.60;;;;;;;-128.00;-1.00;-1.00;105867;1251;1004574;-76
2023/10/13 06:52:54;;;;;;;24.30;21.90;;;;;;;-128.00;-1.00;-1.00;105893;1249;1046143;-77
2023/10/13 06:55:27;;;;;;;27.10;24.20;;;;;;;-128.00;-1.00;-1.00;105810;1251;1049078;-69
2023/10/13 06:58:00;;;;;;;46.20;41.90;;;;;;;-128.00;-1.00;-1.00;105851;1251;1063088;-69
2023/10/13 07:00:33;;;;;;;49.50;45.00;;;;;;;-128.00;-1.00;-1.00;105825;1251;1055174;-69
2023/10/13 07:03:06;;;;;;;36.60;33.20;;;;;;;-128.00;-1.00;-1.00;105810;1251;1058232;-68
2023/10/13 07:05:41;;;;;;;30.30;27.30;;;;;;;-128.00;-1.00;-1.00;105799;1251;1049917;-69
2023/10/13 07:08:08;;;;;;;34.80;31.10;;;;;;;-128.00;-1.00;-1.00;105814;1250;1047917;-71
2023/10/13 07:10:48;;;;;;;50.40;44.90;;;;;;;-128.00;-1.00;-1.00;105828;1251;1004400;-69
2023/10/13 07:13:16;;;;;;;50.10;42.60;;;;;;;-128.00;-1.00;-1.00;105809;1251;1056110;-69
2023/10/13 07:15:44;;;;;;;36.40;32.50;;;;;;;-128.00;-1.00;-1.00;105786;1251;1059906;-70
2023/10/13 07:18:22;;;;;;;28.60;25.60;;;;;;;-128.00;-1.00;-1.00;105787;1250;1004199;-70
2023/10/13 07:20:49;;;;;;;25.50;22.00;;;;;;;-128.00;-1.00;-1.00;105839;1250;1047363;-70
2023/10/13 07:23:19;;;;;;;24.20;18.70;;;;;;;-128.00;-1.00;-1.00;105719;1249;1004184;-71
2023/10/13 07:26:02;;;;;;;20.50;18.20;;;;;;;-128.00;-1.00;-1.00;105947;1250;1056328;-70
2023/10/13 07:28:36;;;;;;;20.60;17.90;;;;;;;-128.00;-1.00;-1.00;105893;1250;1059371;-70
2023/10/13 07:33:33;;;;;;;22.60;17.20;;;;;;;-128.00;-1.00;-1.00;105973;1249;1004491;-71
2023/10/13 07:36:09;;;;;;;20.30;16.10;;;;;;;-128.00;-1.00;-1.00;105743;1250;1062738;-70
2023/10/13 07:38:41;;;;;;;24.10;14.00;;;;;;;-128.00;-1.00;-1.00;105909;1250;1056396;-69
2023/10/13 07:41:09;;;;;;;15.60;12.50;;;;;;;-128.00;-1.00;-1.00;105934;1249;1060364;-69
2023/10/13 07:43:39;;;;;;;17.70;10.70;;;;;;;-128.00;-1.00;-1.00;105917;1250;1003672;-70
2023/10/13 07:46:15;;;;;;;;;;;;;;;-128.00;-1.00;-1.00;105985;1249;1045726;-70
2023/10/13 07:48:45;;;;;;;13.70;9.70;;;;;;;-128.00;-1.00;-1.00;105996;1250;1062708;-70
2023/10/13 07:51:18;;;;;;;10.30;8.20;;;;;;;-128.00;-1.00;-1.00;105913;1250;1055968;-70
2023/10/13 07:53:49;;;;;;;13.20;8.30;;;;;;;-128.00;-1.00;-1.00;105935;1250;1060039;-69
2023/10/13 07:56:19;;;;;;;11.60;7.80;;;;;;;-128.00;-1.00;-1.00;105922;1250;1047289;-70
2023/10/13 07:59:06;;;;;;;10.50;7.60;;;;;;;-128.00;-1.00;-1.00;105953;1249;1046950;-69
2023/10/13 08:01:34;;;;;;;9.00;7.30;;;;;;;-128.00;-1.00;-1.00;105936;1249;1062384;-70
2023/10/13 08:06:36;;;;;;;8.00;6.40;;;;;;;-128.00;-1.00;-1.00;105856;1250;1060088;-69
2023/10/13 08:09:28;;;;;;;8.80;6.00;;;;;;;-128.00;-1.00;-1.00;105901;1250;1004965;-69
2023/10/13 08:11:55;;;;;;;8.50;6.60;;;;;;;-128.00;-1.00;-1.00;105852;1250;1048102;-70
2023/10/13 08:14:22;;;;;;;10.50;7.20;;;;;;;-128.00;-1.00;-1.00;105944;1250;1005027;-70
2023/10/13 08:16:59;;;;;;;10.70;6.50;;;;;;;-128.00;-1.00;-1.00;105827;1250;1005399;-70
2023/10/13 08:19:31;;;;;;;9.30;6.00;;;;;;;-128.00;-1.00;-1.00;105932;1249;1059013;-70
2023/10/13 08:32:54;;;;;;;8.00;6.60;;;;;;;-128.00;-1.00;-1.00;105955;1249;1059683;-68
2023/10/13 08:37:59;;;;;;;8.10;6.00;;;;;;;-128.00;-1.00;-1.00;105804;1249;1048017;-68
2023/10/13 08:43:18;;;;;;;10.30;6.10;;;;;;;-128.00;-1.00;-1.00;105552;1250;1056596;-68
2023/10/13 09:04:22;;;;;;;9.70;5.80;;;;;;;-128.00;-1.00;-1.00;105870;1250;1048287;-68
2023/10/13 09:12:35;;;;;;;8.30;5.80;;;;;;;-128.00;-1.00;-1.00;105919;1249;1058379;-67
2023/10/13 09:15:59;;;;;;;8.80;5.90;;;;;;;-128.00;-1.00;-1.00;105942;1249;1046755;-68
2023/10/13 09:23:12;;;;;;;7.60;5.20;;;;;;;-128.00;-1.00;-1.00;105951;1249;1055601;-69
2023/10/13 09:25:53;;;;;;;6.90;5.70;;;;;;;-128.00;-1.00;-1.00;105882;1250;1058834;-68
2023/10/13 09:28:25;;;;;;;6.20;5.20;;;;;;;-128.00;-1.00;-1.00;105914;1249;1048126;-68
2023/10/13 09:30:56;;;;;;;10.80;6.60;;;;;;;-128.00;-1.00;-1.00;105836;1250;1047267;-68
2023/10/13 09:33:35;;;;;;;7.00;5.60;;;;;;;-128.00;-1.00;-1.00;105900;1249;1062678;-69
2023/10/13 09:36:06;;;;;;;6.90;5.40;;;;;;;-128.00;-1.00;-1.00;105940;1249;1057591;-69
2023/10/13 09:39:29;;;;;;;10.90;6.30;;;;;;;-128.00;-1.00;-1.00;105952;1250;1059408;-69
2023/10/13 09:41:26;;;;;;;11.70;6.20;;;;;;;-128.00;-1.00;-1.00;105824;1249;1045884;-69
2023/10/13 09:43:57;;;;;;;7.40;5.60;;;;;;;-128.00;-1.00;-1.00;105883;1250;1046504;-69
2023/10/13 09:46:28;;;;;;;8.50;5.90;;;;;;;-128.00;-1.00;-1.00;105927;1250;1062558;-69
2023/10/13 09:49:08;;;;;;;7.60;5.20;;;;;;;-128.00;-1.00;-1.00;105964;1249;1055614;-69
2023/10/13 09:51:34;;;;;;;9.30;6.00;;;;;;;-128.00;-1.00;-1.00;105899;1249;1058635;-69
2023/10/13 09:54:11;;;;;;;6.70;5.30;;;;;;;-128.00;-1.00;-1.00;105938;1249;1004321;-69
2023/10/13 09:56:51;;;;;;;11.30;5.70;;;;;;;-128.00;-1.00;-1.00;106000;1249;1047539;-69
2023/10/13 09:59:34;;;;;;;6.80;5.50;;;;;;;-128.00;-1.00;-1.00;105919;1249;1062586;-69
2023/10/13 10:02:08;;;;;;;10.50;5.60;;;;;;;-128.00;-1.00;-1.00;105964;1249;1055875;-69
2023/10/13 10:04:51;;;;;;;7.30;5.20;;;;;;;-128.00;-1.00;-1.00;105894;1249;1059074;-69
2023/10/13 10:07:28;;;;;;;7.10;5.30;;;;;;;-128.00;-1.00;-1.00;105768;1250;1046031;-69
2023/10/13 10:10:00;;;;;;;7.90;5.40;;;;;;;-128.00;-1.00;-1.00;105623;1250;1047734;-69
2023/10/13 10:12:52;;;;;;;7.70;5.50;;;;;;;-128.00;-1.00;-1.00;105797;1250;1061921;-69
2023/10/13 10:15:43;;;;;;;7.60;5.20;;;;;;;-128.00;-1.00;-1.00;105807;1250;1056061;-69
2023/10/13 10:18:22;;;;;;;9.40;5.60;;;;;;;-128.00;-1.00;-1.00;105809;1250;1060223;-68
2023/10/13 10:20:52;;;;;;;7.20;5.50;;;;;;;-128.00;-1.00;-1.00;105801;1250;1046464;-69
2023/10/13 10:23:28;;;;;;;8.90;5.60;;;;;;;-128.00;-1.00;-1.00;105919;1250;1046641;-69
2023/10/13 10:26:08;;;;;;;7.80;5.30;;;;;;;-128.00;-1.00;-1.00;105816;1250;1061801;-69
2023/10/13 10:28:36;;;;;;;7.60;5.80;;;;;;;-128.00;-1.00;-1.00;105775;1250;1057113;-68
2023/10/13 10:31:12;;;;;;;7.50;5.30;;;;;;;-128.00;-1.00;-1.00;105772;1250;1004222;-68
2023/10/13 10:33:39;;;;;;;8.50;5.70;;;;;;;-128.00;-1.00;-1.00;105765;1250;1046172;-70
2023/10/13 10:36:06;;;;;;;7.10;5.30;;;;;;;-128.00;-1.00;-1.00;105815;1250;1004403;-70
2023/10/13 10:38:34;;;;;;;6.90;5.40;;;;;;;-128.00;-1.00;-1.00;105714;1250;1005143;-69
2023/10/13 10:41:04;;;;;;;6.30;4.50;;;;;;;-128.00;-1.00;-1.00;105759;1250;1004198;-70
2023/10/13 10:43:43;;;;;;;8.00;4.60;;;;;;;-128.00;-1.00;-1.00;105781;1250;1058849;-69
2023/10/13 10:46:12;;;;;;;11.30;5.60;;;;;;;-128.00;-1.00;-1.00;105721;1250;1047258;-69
2023/10/13 10:48:42;;;;;;;7.20;4.10;;;;;;;-128.00;-1.00;-1.00;105788;1250;1047179;-78
2023/10/13 10:51:15;;;;;;;5.50;4.10;;;;;;;-128.00;-1.00;-1.00;105560;1250;1061539;-79
2023/10/13 10:53:45;;;;;;;8.40;4.90;;;;;;;-128.00;-1.00;-1.00;105787;1250;1056868;-69
2023/10/13 10:56:19;;;;;;;6.80;5.10;;;;;;;-128.00;-1.00;-1.00;105780;1250;1059249;-69
2023/10/13 10:58:47;;;;;;;8.30;4.70;;;;;;;-128.00;-1.00;-1.00;105783;1250;1046085;-69
2023/10/13 11:01:21;;;;;;;6.10;4.70;;;;;;;-128.00;-1.00;-1.00;105819;1250;1004076;-69
2023/10/13 11:03:59;;;;;;;5.10;4.40;;;;;;;-128.00;-1.00;-1.00;105830;1250;1062341;-69
2023/10/13 11:06:26;;;;;;;4.40;3.50;;;;;;;-128.00;-1.00;-1.00;105835;1250;1055688;-69
2023/10/13 11:09:03;;;;;;;5.60;3.60;;;;;;;-128.00;-1.00;-1.00;105780;1250;1003482;-69
2023/10/13 11:11:35;;;;;;;5.20;3.90;;;;;;;-128.00;-1.00;-1.00;105720;1250;1046602;-69
2023/10/13 11:14:23;;;;;;;5.30;4.20;;;;;;;-128.00;-1.00;-1.00;105813;1251;1046920;-69
2023/10/13 11:16:50;;;;;;;7.10;3.60;;;;;;;-128.00;-1.00;-1.00;105820;1250;1063367;-69
2023/10/13 11:19:23;;;;;;;4.30;3.80;;;;;;;-128.00;-1.00;-1.00;105860;1250;1004655;-70
2023/10/13 11:21:49;;;;;;;9.50;4.00;;;;;;;-128.00;-1.00;-1.00;105820;1250;1058899;-69
2023/10/13 11:24:17;;;;;;;4.60;3.90;;;;;;;-128.00;-1.00;-1.00;105784;1250;1004763;-70
2023/10/13 11:26:49;;;;;;;5.90;4.10;;;;;;;-128.00;-1.00;-1.00;105777;1250;1005021;-69
2023/10/13 11:29:19;;;;;;;6.00;4.10;;;;;;;-128.00;-1.00;-1.00;105811;1250;1062410;-69
2023/10/13 11:31:58;;;;;;;6.80;4.30;;;;;;;-128.00;-1.00;-1.00;105879;1250;1054407;-69
2023/10/13 11:34:30;;;;;;;;;;;;;;;-128.00;-1.00;-1.00;105822;1250;1059350;-69
2023/10/13 11:36:58;;;;;;;5.80;3.70;;;;;;;-128.00;-1.00;-1.00;105755;1250;1046851;-69
2023/10/13 11:39:32;;;;;;;6.70;3.50;;;;;;;-128.00;-1.00;-1.00;105777;1250;1049484;-69
2023/10/13 11:41:59;;;;;;;5.60;3.70;;;;;;;-128.00;-1.00;-1.00;105811;1250;1062421;-69
2023/10/13 11:44:30;;;;;;;6.50;4.10;;;;;;;-128.00;-1.00;-1.00;105836;1250;1004344;-69
2023/10/13 11:47:07;;;;;;;4.70;3.50;;;;;;;-128.00;-1.00;-1.00;105820;1250;1058451;-69
2023/10/13 11:49:36;;;;;;;6.00;3.30;;;;;;;-128.00;-1.00;-1.00;105822;1250;1045120;-69
2023/10/13 11:52:15;;;;;;;4.00;3.60;;;;;;;-128.00;-1.00;-1.00;105877;1250;1046650;-69
2023/10/13 11:54:43;;;;;;;7.20;4.80;;;;;;;-128.00;-1.00;-1.00;105812;1250;1062427;-69
2023/10/13 11:57:09;;;;;;;4.20;3.90;;;;;;;-128.00;-1.00;-1.00;105771;1250;1004966;-69
2023/10/13 11:59:40;;;;;;;6.30;4.30;;;;;;;-128.00;-1.00;-1.00;105784;1250;1004664;-69
2023/10/13 12:09:51;;;;;;;5.90;4.20;;;;;;;-128.00;-1.00;-1.00;105744;1250;1056144;-69
2023/10/13 12:12:18;;;;;;;9.70;4.50;;;;;;;-128.00;-1.00;-1.00;105917;1250;1059513;-69
2023/10/13 12:14:57;;;;;;;8.20;4.20;;;;;;;-128.00;-1.00;-1.00;105817;1250;1004482;-70
2023/10/13 12:17:39;;;;;;;5.00;4.10;;;;;;;-128.00;-1.00;-1.00;105380;1254;1048393;-69
2023/10/13 12:20:10;;;;;;;5.20;3.80;;;;;;;-128.00;-1.00;-1.00;105335;1254;1062267;-69
2023/10/13 12:22:42;;;;;;;3.90;3.60;;;;;;;-128.00;-1.00;-1.00;105357;1254;1056009;-69
2023/10/13 12:26:19;;;;;;;3.70;3.30;;;;;;;-128.00;-1.00;-1.00;105373;1254;1059674;-69
2023/10/13 12:28:21;;;;;;;5.80;3.30;;;;;;;-128.00;-1.00;-1.00;105380;1254;1046573;-69
2023/10/13 12:30:52;;;;;;;5.70;4.10;;;;;;;-128.00;-1.00;-1.00;105528;1254;1046726;-68
2023/10/13 12:33:26;;;;;;;4.40;4.00;;;;;;;-128.00;-1.00;-1.00;105462;1255;1062728;-69
2023/10/13 12:36:06;;;;;;;5.70;4.00;;;;;;;-128.00;-1.00;-1.00;105546;1254;1055944;-69
2023/10/13 12:38:50;;;;;;;7.60;4.30;;;;;;;-128.00;-1.00;-1.00;105495;1254;1058674;-69
2023/10/13 12:55:09;;;;;;;5.30;3.30;;;;;;;-128.00;-1.00;-1.00;105677;1250;1045892;-69
2023/10/13 12:57:42;;;;;;;4.30;3.20;;;;;;;-128.00;-1.00;-1.00;105815;1250;1047545;-68
2023/10/13 13:00:21;;;;;;;4.30;2.90;;;;;;;-128.00;-1.00;-1.00;105821;1250;1061970;-68
2023/10/13 13:02:50;;;;;;;4.50;3.50;;;;;;;-128.00;-1.00;-1.00;105809;1250;1055632;-69
2023/10/13 13:05:21;;;;;;;5.30;3.10;;;;;;;-128.00;-1.00;-1.00;105827;1250;1059601;-69
2023/10/13 13:07:52;;;;;;;3.30;2.80;;;;;;;-128.00;-1.00;-1.00;105834;1250;1045802;-69
2023/10/13 13:10:19;;;;;;;4.70;2.70;;;;;;;-128.00;-1.00;-1.00;105774;1250;1047415;-69
2023/10/13 13:12:45;;;;;;;5.30;2.90;;;;;;;-128.00;-1.00;-1.00;105578;1250;1005355;-69
2023/10/13 13:15:12;;;;;;;3.10;2.60;;;;;;;-128.00;-1.00;-1.00;105840;1250;1004430;-69
2023/10/13 13:17:39;;;;;;;4.20;2.90;;;;;;;-128.00;-1.00;-1.00;105801;1250;1003507;-69
2023/10/13 13:20:11;;;;;;;3.60;2.60;;;;;;;-128.00;-1.00;-1.00;105678;1250;1005371;-69
2023/10/13 13:22:38;;;;;;;2.90;2.60;;;;;;;-128.00;-1.00;-1.00;105841;1250;1048143;-70
2023/10/13 13:25:09;;;;;;;5.40;2.70;;;;;;;-128.00;-1.00;-1.00;105788;1250;1003466;-70
2023/10/13 13:27:36;;;;;;;4.40;2.70;;;;;;;-128.00;-1.00;-1.00;105858;1250;1055613;-70
2023/10/13 13:30:12;;;;;;;3.90;2.60;;;;;;;-128.00;-1.00;-1.00;105788;1250;1004487;-70
2023/10/13 13:32:40;;;;;;;4.10;3.30;;;;;;;-128.00;-1.00;-1.00;105769;1250;1046348;-69
2023/10/13 13:35:07;;;;;;;4.00;3.00;;;;;;;-128.00;-1.00;-1.00;105760;1251;1004358;-70
2023/10/13 13:37:37;;;;;;;5.20;2.90;;;;;;;-128.00;-1.00;-1.00;105839;1250;1003415;-70
2023/10/13 13:40:14;;;;;;;5.00;2.80;;;;;;;-128.00;-1.00;-1.00;105898;1250;1056385;-69
2023/10/13 13:42:45;;;;;;;5.50;3.90;;;;;;;-128.00;-1.00;-1.00;105721;1250;1059947;-68
2023/10/13 13:45:27;;;;;;;3.80;3.20;;;;;;;-128.00;-1.00;-1.00;105810;1250;1047600;-68
2023/10/13 13:47:54;;;;;;;4.70;4.00;;;;;;;-128.00;-1.00;-1.00;105837;1250;1047760;-68
2023/10/13 13:50:24;;;;;;;5.40;3.20;;;;;;;-128.00;-1.00;-1.00;105846;1250;1004534;-68
2023/10/13 13:52:52;;;;;;;4.80;3.00;;;;;;;-128.00;-1.00;-1.00;105809;1250;1056284;-68
2023/10/13 13:55:19;;;;;;;6.20;4.10;;;;;;;-128.00;-1.00;-1.00;105799;1250;1004019;-69
2023/10/13 13:57:46;;;;;;;5.90;4.70;;;;;;;-128.00;-1.00;-1.00;105810;1250;1004270;-69
2023/10/13 14:00:17;;;;;;;8.40;5.20;;;;;;;-128.00;-1.00;-1.00;105832;1250;1004196;-69
2023/10/13 14:02:47;;;;;;;9.00;6.10;;;;;;;-128.00;-1.00;-1.00;105941;1249;1062422;-69
2023/10/13 14:05:18;;;;;;;12.10;9.10;;;;;;;-128.00;-1.00;-1.00;105906;1250;1054882;-69
2023/10/13 14:07:48;;;;;;;8.90;6.40;;;;;;;-128.00;-1.00;-1.00;105913;1249;1060453;-68
2023/10/13 14:10:31;;;;;;;14.60;8.40;;;;;;;-128.00;-1.00;-1.00;105859;1249;1046983;-69
2023/10/13 14:13:06;;;;;;;17.50;9.80;;;;;;;-128.00;-1.00;-1.00;105867;1249;1046910;-69
2023/10/13 14:15:44;;;;;;;7.90;4.40;;;;;;;-128.00;-1.00;-1.00;105928;1249;1062006;-71
2023/10/13 14:18:16;;;;;;;8.80;4.70;;;;;;;-128.00;-1.00;-1.00;105947;1249;1056334;-69
2023/10/13 14:20:43;;;;;;;10.00;5.90;;;;;;;-128.00;-1.00;-1.00;105880;1249;1060437;-69
2023/10/13 14:23:11;;;;;;;11.30;6.30;;;;;;;-128.00;-1.00;-1.00;105892;1249;1004992;-69
2023/10/13 14:25:39;;;;;;;11.90;6.10;;;;;;;-128.00;-1.00;-1.00;105911;1249;1047148;-69
2023/10/13 14:28:05;;;;;;;7.50;5.70;;;;;;;-128.00;-1.00;-1.00;105918;1249;1003770;-69
2023/10/13 14:30:32;;;;;;;6.70;3.90;;;;;;;-128.00;-1.00;-1.00;105926;1249;1004142;-69
2023/10/13 14:32:59;;;;;;;3.10;2.40;;;;;;;-128.00;-1.00;-1.00;105913;1249;1005807;-70
2023/10/13 14:35:25;;;;;;;3.90;2.30;;;;;;;-128.00;-1.00;-1.00;105909;1249;1003232;-68
2023/10/13 14:37:52;;;;;;;2.80;1.90;;;;;;;-128.00;-1.00;-1.00;105946;1249;1004196;-69
2023/10/13 14:40:21;;;;;;;2.20;1.80;;;;;;;-128.00;-1.00;-1.00;105945;1249;1003858;-69
2023/10/13 14:42:48;;;;;;;2.60;2.10;;;;;;;-128.00;-1.00;-1.00;105925;1249;1055468;-69
2023/10/13 14:45:17;;;;;;;3.80;2.30;;;;;;;-128.00;-1.00;-1.00;105885;1250;1004650;-68
2023/10/13 14:47:44;;;;;;;3.80;2.10;;;;;;;-128.00;-1.00;-1.00;105968;1249;1046857;-68
2023/10/13 14:50:19;;;;;;;5.30;1.90;;;;;;;-128.00;-1.00;-1.00;105956;1249;1004320;-70